»·PEaware :: PDT4715 KLAS-KPGA

PDT4715 :: KLAS-KPGA

FLIGHT INFORMATION

Flight Status: Arrived
Operator:
USAir Express
More flights by this operator :: More flights under this callsign
Pilot: Anonymous 24416 (24416)
Aircraft: EMBRAER ERJ-145
(E145)
More flights by this aircraft type
Origin: KLAS McCarran Intl
United States
Destination: KPGA Page Mun
United States
More flights between these airports :: More routes between these airports
Route: STAAV8 TRALR PGA
File this flight plan on PilotEdge
Remarks:
Altitude:
(Current/Filed)
23,000ft
Speed:
(Current/Filed)
430kts
Departed: 14-Mar-20 08:08 PM
Arrived: 14-Mar-20 08:54 PM
Distance/Time
Traveled:
187nm/0:46
Distance/Time
To Go:
Arrived

Flight Plot

Page will automatically refresh every two minutes.

Flight plan parsing failed; only flown route is shown


Map Options




Map Legend


Flown Route
Filed Route
Departure Airport
Arrival Airport
Navaid (VOR, NDB)
Fix

Horizontal Profiles

Position Reports

Time Latitude Longitude Heading Altitude Ground
Speed
14-Mar-20 19:45 36.085333 -115.133142 0 2042ft 0kts
14-Mar-20 19:46 36.085333 -115.133142 0 2042ft 0kts
14-Mar-20 19:47 36.085333 -115.133142 0 2042ft 0kts
14-Mar-20 19:48 36.085333 -115.133142 0 2042ft 0kts
14-Mar-20 19:49 36.085333 -115.133142 0 2042ft 0kts
14-Mar-20 19:50 36.085333 -115.133142 0 2042ft 0kts
14-Mar-20 19:51 36.085333 -115.133142 0 2042ft 0kts
14-Mar-20 19:52 36.085333 -115.133142 0 2042ft 0kts
14-Mar-20 19:53 36.085333 -115.133142 0 2042ft 0kts
14-Mar-20 19:54 36.085080 -115.133133 1 2043ft 2kts
14-Mar-20 19:55 36.084828 -115.133419 91 2044ft 0kts
14-Mar-20 19:56 36.084828 -115.133418 91 2044ft 0kts
14-Mar-20 19:57 36.084828 -115.133408 91 2044ft 0kts
14-Mar-20 19:58 36.084828 -115.133408 91 2044ft 0kts
14-Mar-20 19:59 36.082902 -115.132925 179 2047ft 15kts
14-Mar-20 20:00 36.079679 -115.132932 180 2053ft 12kts
14-Mar-20 20:01 36.078275 -115.130340 90 2048ft 12kts
14-Mar-20 20:02 36.078278 -115.125251 90 2037ft 18kts
14-Mar-20 20:03 36.077763 -115.121928 128 2035ft 5kts
14-Mar-20 20:04 36.077562 -115.121620 129 2035ft 0kts
14-Mar-20 20:05 36.077562 -115.121620 129 2035ft 0kts
14-Mar-20 20:06 36.077360 -115.121392 144 2035ft 6kts
14-Mar-20 20:07 36.076430 -115.127593 270 2046ft 91kts
14-Mar-20 20:08 36.076647 -115.176756 266 4131ft 155kts
14-Mar-20 20:09 36.076453 -115.231724 266 6786ft 174kts
14-Mar-20 20:10 36.094806 -115.290930 340 8883ft 242kts
14-Mar-20 20:11 36.163238 -115.281058 50 10861ft 278kts
14-Mar-20 20:12 36.194688 -115.189848 79 12843ft 305kts
14-Mar-20 20:13 36.197300 -115.084065 93 14859ft 326kts
14-Mar-20 20:14 36.198587 -114.965058 93 16476ft 364kts
14-Mar-20 20:15 36.199845 -114.835383 93 18274ft 388kts
14-Mar-20 20:16 36.199446 -114.698974 95 20085ft 404kts
14-Mar-20 20:17 36.197842 -114.557647 95 21842ft 417kts
14-Mar-20 20:18 36.196008 -114.411786 95 23063ft 433kts
14-Mar-20 20:19 36.194067 -114.261909 93 23064ft 435kts
14-Mar-20 20:20 36.229241 -114.116421 74 23071ft 444kts
14-Mar-20 20:21 36.269269 -113.971271 74 23078ft 444kts
14-Mar-20 20:22 36.309082 -113.826131 74 23082ft 445kts
14-Mar-20 20:23 36.348804 -113.680542 74 23082ft 445kts
14-Mar-20 20:24 36.388141 -113.535563 74 23083ft 445kts
14-Mar-20 20:25 36.427478 -113.389786 74 23046ft 445kts
14-Mar-20 20:26 36.466627 -113.243901 74 22997ft 444kts
14-Mar-20 20:27 36.505376 -113.098707 74 22999ft 444kts
14-Mar-20 20:28 36.544123 -112.952641 74 23000ft 444kts
14-Mar-20 20:29 36.582499 -112.807226 73 23000ft 442kts
14-Mar-20 20:30 36.620744 -112.661570 73 22433ft 440kts
14-Mar-20 20:31 36.657228 -112.521798 73 20420ft 405kts
14-Mar-20 20:32 36.691425 -112.390048 73 18522ft 394kts
14-Mar-20 20:33 36.724545 -112.261833 74 16964ft 382kts
14-Mar-20 20:34 36.756653 -112.136908 74 15854ft 375kts
14-Mar-20 20:35 36.788080 -112.014056 74 14938ft 368kts
14-Mar-20 20:36 36.819086 -111.892241 73 14447ft 367kts
14-Mar-20 20:38 36.849739 -111.771235 73 13955ft 364kts
14-Mar-20 20:39 36.879882 -111.651719 73 13448ft 337kts
14-Mar-20 20:40 36.905775 -111.548557 74 12649ft 287kts
14-Mar-20 20:41 36.935633 -111.460526 32 12264ft 285kts
14-Mar-20 20:42 37.009830 -111.465137 346 11125ft 269kts
14-Mar-20 20:43 37.081961 -111.481404 346 9796ft 258kts
14-Mar-20 20:44 37.151904 -111.497198 346 9186ft 254kts
14-Mar-20 20:45 37.216935 -111.526932 332 8688ft 247kts
14-Mar-20 20:46 37.244362 -111.587392 231 8123ft 243kts
14-Mar-20 20:47 37.189801 -111.562141 104 7973ft 259kts
14-Mar-20 20:48 37.159046 -111.490308 169 7987ft 243kts
14-Mar-20 20:49 37.092551 -111.484144 172 7454ft 224kts
14-Mar-20 20:50 37.039548 -111.472808 171 6751ft 181kts
14-Mar-20 20:51 36.994158 -111.462917 170 5552ft 156kts
14-Mar-20 20:52 36.953716 -111.454108 169 4634ft 147kts
14-Mar-20 20:53 36.919172 -111.446548 169 4290ft 41kts
14-Mar-20 20:54 36.916769 -111.446550 242 4297ft 3kts
14-Mar-20 20:54 36.918838 -111.447600 349 4294ft 23kts
14-Mar-20 20:56 37.245065 -111.546924 307 8410ft 241kts

Navigation Log

Ident Type
Flight plan parsing failed, navigation log unavailable